createdAt,value
2023-05-10T00:01:01.089Z,100884.69
2023-05-10T00:03:27.773Z,100881.66
2023-05-10T00:05:54.300Z,100880.88
2023-05-10T00:08:21.751Z,100872.69
2023-05-10T00:10:48.369Z,100876.53
2023-05-10T00:13:14.833Z,100871.59
2023-05-10T00:15:41.411Z,100872.94
2023-05-10T00:18:08.005Z,100867.47
2023-05-10T00:20:37.537Z,100870.50
2023-05-10T00:23:04.031Z,100871.59
2023-05-10T00:25:35.501Z,100870.50
2023-05-10T00:28:02.764Z,100861.25
2023-05-10T00:30:29.272Z,100866.38
2023-05-10T00:32:55.900Z,100865.59
2023-05-10T00:35:22.709Z,100865.59
2023-05-10T00:37:53.300Z,100862.88
2023-05-10T00:40:20.746Z,100861.25
2023-05-10T00:42:47.299Z,100865.06
2023-05-10T00:45:13.775Z,100867.47
2023-05-10T00:47:41.742Z,100873.19
2023-05-10T00:50:09.855Z,100862.00
2023-05-10T00:52:36.561Z,100861.72
2023-05-10T00:55:04.323Z,100855.44
2023-05-10T00:57:31.414Z,100866.06
2023-05-10T00:59:58.756Z,100864.16
2023-05-10T01:02:25.505Z,100863.34
2023-05-10T01:04:52.904Z,100864.97
2023-05-10T01:07:19.447Z,100866.59
2023-05-10T01:09:46.196Z,100868.78
2023-05-10T01:12:12.977Z,100864.44
2023-05-10T01:14:39.756Z,100866.63
2023-05-10T01:17:07.384Z,100868.53
2023-05-10T01:19:36.008Z,100869.38
2023-05-10T01:22:24.224Z,100863.91
2023-05-10T01:25:07.985Z,100870.72
2023-05-10T01:27:48.736Z,100873.75
2023-05-10T01:30:36.357Z,100870.72
2023-05-10T01:33:14.811Z,100871.56
2023-05-10T01:35:48.490Z,100865.00
2023-05-10T01:38:42.900Z,100862.28
2023-05-10T01:41:28.560Z,100862.88
2023-05-10T01:44:02.134Z,100869.94
2023-05-10T01:46:37.675Z,100875.38
2023-05-10T01:49:10.007Z,100877.81
2023-05-10T01:51:43.312Z,100881.34
2023-05-10T01:54:13.015Z,100872.88
2023-05-10T01:56:41.870Z,100873.44
2023-05-10T01:59:14.418Z,100867.22
2023-05-10T02:01:41.529Z,100871.56
2023-05-10T02:04:10.778Z,100868.84
2023-05-10T02:06:40.088Z,100871.56
2023-05-10T02:09:08.917Z,100873.19
2023-05-10T02:11:35.964Z,100873.19
2023-05-10T02:14:02.752Z,100873.19
2023-05-10T02:16:31.800Z,100880.81
2023-05-10T02:19:02.402Z,100874.56
2023-05-10T02:21:30.572Z,100878.63
2023-05-10T02:23:58.229Z,100881.34
2023-05-10T02:26:26.945Z,100877.53
2023-05-10T02:28:55.692Z,100880.25
2023-05-10T02:31:23.334Z,100889.53
2023-05-10T02:33:50.971Z,100890.63
2023-05-10T02:36:18.191Z,100894.44
2023-05-10T02:38:45.922Z,100889.00
2023-05-10T02:41:13.206Z,100894.13
2023-05-10T02:43:41.667Z,100901.22
2023-05-10T02:46:08.183Z,100894.97
2023-05-10T02:48:34.767Z,100904.22
2023-05-10T02:51:06.316Z,100900.41
2023-05-10T02:53:35.281Z,100896.59
2023-05-10T02:56:07.997Z,100900.41
2023-05-10T02:58:34.443Z,100891.72
2023-05-10T03:01:01.662Z,100900.97
2023-05-10T03:03:28.066Z,100905.59
2023-05-10T03:05:57.646Z,100907.00
2023-05-10T03:08:24.669Z,100907.56
2023-05-10T03:11:30.657Z,100906.50
2023-05-10T03:14:11.090Z,100910.59
2023-05-10T03:16:53.384Z,100917.97
2023-05-10T03:19:33.398Z,100909.53
2023-05-10T03:22:04.640Z,100915.00
2023-05-10T03:24:31.265Z,100920.47
2023-05-10T03:27:03.351Z,100921.31
2023-05-10T03:29:31.753Z,100931.13
2023-05-10T03:32:01.376Z,100931.13
2023-05-10T03:34:27.766Z,100925.69
2023-05-10T03:36:54.164Z,100924.88
2023-05-10T03:39:22.240Z,100929.53
2023-05-10T03:41:48.602Z,100933.88
2023-05-10T03:44:15.046Z,100923.53
2023-05-10T03:46:41.460Z,100919.72
2023-05-10T03:49:07.848Z,100914.00
2023-05-10T03:51:34.359Z,100913.47
2023-05-10T03:54:00.718Z,100926.25
2023-05-10T03:56:27.164Z,100920.81
2023-05-10T03:58:53.526Z,100924.34
2023-05-10T04:01:19.916Z,100921.88
2023-05-10T04:03:46.443Z,100932.25
2023-05-10T04:06:13.037Z,100919.72
2023-05-10T04:08:39.666Z,100925.16
2023-05-10T04:11:10.435Z,100932.25
2023-05-10T04:13:37.212Z,100923.78
2023-05-10T04:16:03.807Z,100930.06
2023-05-10T04:18:30.182Z,100932.47
2023-05-10T04:20:56.630Z,100933.31
2023-05-10T04:23:23.005Z,100930.59
2023-05-10T04:25:49.494Z,100934.09
2023-05-10T04:28:15.862Z,100933.31
2023-05-10T04:30:42.354Z,100927.59
2023-05-10T04:33:08.768Z,100927.06
2023-05-10T04:35:35.972Z,100939.34
2023-05-10T04:38:02.361Z,100928.75
2023-05-10T04:40:28.726Z,100933.91
2023-05-10T04:42:55.398Z,100932.25
2023-05-10T04:45:21.814Z,100933.88
2023-05-10T04:47:48.229Z,100941.50
2023-05-10T04:50:14.978Z,100941.50
2023-05-10T04:52:41.501Z,100941.50
2023-05-10T04:55:10.460Z,100947.47
2023-05-10T04:57:36.851Z,100945.56
2023-05-10T05:00:04.018Z,100949.91
2023-05-10T05:02:30.594Z,100953.44
2023-05-10T05:04:58.774Z,100950.16
2023-05-10T05:07:25.132Z,100955.59
2023-05-10T05:09:51.479Z,100964.31
2023-05-10T05:12:17.857Z,100959.97
2023-05-10T05:14:46.299Z,100969.75
2023-05-10T05:17:20.566Z,100963.22
2023-05-10T05:19:47.076Z,100968.66
2023-05-10T05:22:30.545Z,100970.28
2023-05-10T05:24:57.517Z,100971.91
2023-05-10T05:27:27.202Z,100974.09
2023-05-10T05:29:54.448Z,100968.66
2023-05-10T05:32:20.902Z,100982.25
2023-05-10T05:34:47.456Z,100983.06
2023-05-10T05:37:21.039Z,100987.41
2023-05-10T05:39:47.530Z,100975.44
2023-05-10T05:42:14.362Z,100980.88
2023-05-10T05:44:41.242Z,100980.06
2023-05-10T05:47:07.686Z,100984.16
2023-05-10T05:49:34.474Z,100990.44
2023-05-10T05:52:04.618Z,100983.06
2023-05-10T05:54:32.089Z,100989.38
2023-05-10T05:57:01.044Z,100996.16
2023-05-10T05:59:28.383Z,100994.28
2023-05-10T06:01:55.061Z,101006.25
2023-05-10T06:04:21.658Z,100998.34
2023-05-10T06:06:48.057Z,101006.25
2023-05-10T06:09:14.510Z,101009.00
2023-05-10T06:11:40.917Z,101011.72
2023-05-10T06:14:08.771Z,101013.38
2023-05-10T06:16:36.203Z,101012.28
2023-05-10T06:19:03.500Z,101019.66
2023-05-10T06:21:30.154Z,101022.06
2023-05-10T06:23:56.657Z,101027.50
2023-05-10T06:26:23.026Z,101024.53
2023-05-10T06:28:49.442Z,101019.88
2023-05-10T06:31:16.136Z,101023.16
2023-05-10T06:33:42.713Z,101020.69
2023-05-10T06:36:09.240Z,101013.91
2023-05-10T06:38:35.594Z,101023.69
2023-05-10T06:41:01.993Z,101025.31
2023-05-10T06:43:29.601Z,101027.81
2023-05-10T06:45:56.266Z,101032.97
2023-05-10T06:48:22.909Z,101033.50
2023-05-10T06:50:49.513Z,101036.22
2023-05-10T06:53:16.384Z,101034.59
2023-05-10T06:55:42.739Z,101037.59
2023-05-10T06:58:09.111Z,101038.41
2023-05-10T07:00:35.616Z,101043.88
2023-05-10T07:03:02.028Z,101039.28
2023-05-10T07:05:29.090Z,101042.78
2023-05-10T07:07:55.688Z,101048.22
2023-05-10T07:10:22.111Z,101047.97
2023-05-10T07:12:48.528Z,101056.41
2023-05-10T07:15:15.099Z,101054.75
2023-05-10T07:17:43.185Z,101058.56
2023-05-10T07:20:11.666Z,101061.28
2023-05-10T07:22:38.097Z,101058.56
2023-05-10T07:25:04.799Z,101062.94
2023-05-10T07:27:31.446Z,101065.66
2023-05-10T07:29:57.836Z,101059.13
2023-05-10T07:32:24.281Z,101070.00
2023-05-10T07:34:50.854Z,101071.09
2023-05-10T07:37:17.479Z,101075.97
2023-05-10T07:39:43.871Z,101089.31
2023-05-10T07:42:10.359Z,101084.69
2023-05-10T07:44:36.745Z,101073.78
2023-05-10T07:47:03.130Z,101086.84
2023-05-10T07:49:29.673Z,101092.56
2023-05-10T07:51:56.034Z,101087.91
2023-05-10T07:54:22.556Z,101096.63
2023-05-10T07:56:49.180Z,101096.09
2023-05-10T07:59:17.701Z,101103.16
2023-05-10T08:01:44.530Z,101098.25
2023-05-10T08:04:10.988Z,101107.22
2023-05-10T08:06:37.620Z,101105.88
2023-05-10T08:09:04.096Z,101110.75
2023-05-10T08:11:30.612Z,101113.50
2023-05-10T08:13:56.996Z,101114.28
2023-05-10T08:16:23.543Z,101118.91
2023-05-10T08:18:51.602Z,101118.09
2023-05-10T08:21:18.271Z,101122.44
2023-05-10T08:23:45.223Z,101113.19
2023-05-10T08:26:11.799Z,101121.88
2023-05-10T08:28:38.253Z,101115.66
2023-05-10T08:31:05.739Z,101115.66
2023-05-10T08:33:32.081Z,101121.66
2023-05-10T08:35:58.442Z,101124.38
2023-05-10T08:38:25.710Z,101126.31
2023-05-10T08:40:57.604Z,101133.41
2023-05-10T08:43:30.169Z,101132.84
2023-05-10T08:45:59.920Z,101132.84
2023-05-10T08:48:27.618Z,101145.91
2023-05-10T08:50:58.479Z,101144.53
2023-05-10T08:53:27.557Z,101149.97
2023-05-10T08:55:54.335Z,101154.03
2023-05-10T08:58:21.328Z,101151.03
2023-05-10T09:00:53.664Z,101154.03
2023-05-10T09:03:20.275Z,101155.94
2023-05-10T09:05:47.252Z,101153.75
2023-05-10T09:08:16.717Z,101158.09
2023-05-10T09:10:44.790Z,101154.25
2023-05-10T09:13:12.586Z,101150.97
2023-05-10T09:15:39.489Z,101157.19
2023-05-10T09:18:06.016Z,101154.19
2023-05-10T09:20:32.638Z,101153.63
2023-05-10T09:22:59.013Z,101157.44
2023-05-10T09:25:25.432Z,101154.69
2023-05-10T09:27:53.468Z,101162.81
2023-05-10T09:30:28.557Z,101161.16
2023-05-10T09:32:55.974Z,101162.22
2023-05-10T09:35:26.548Z,101165.47
2023-05-10T09:37:57.096Z,101165.47
2023-05-10T09:40:25.641Z,101173.13
2023-05-10T09:42:58.063Z,101170.66
2023-05-10T09:45:26.900Z,101177.44
2023-05-10T09:47:53.736Z,101178.47
2023-05-10T09:50:21.509Z,101186.38
2023-05-10T09:52:53.276Z,101188.75
2023-05-10T09:55:22.693Z,101177.84
2023-05-10T09:57:59.008Z,101188.75
2023-05-10T10:00:25.443Z,101187.41
2023-05-10T10:02:59.700Z,101187.97
2023-05-10T10:05:33.654Z,101191.28
2023-05-10T10:08:01.484Z,101193.72
2023-05-10T10:10:28.835Z,101195.09
2023-05-10T10:12:56.314Z,101195.41
2023-05-10T10:15:23.529Z,101200.03
2023-05-10T10:17:50.868Z,101195.97
2023-05-10T10:20:18.502Z,101206.28
2023-05-10T10:22:45.397Z,101204.63
2023-05-10T10:25:12.956Z,101206.25
2023-05-10T10:27:49.537Z,101206.22
2023-05-10T10:30:21.750Z,101202.34
2023-05-10T10:33:27.847Z,101208.88
2023-05-10T10:35:56.408Z,101201.50
2023-05-10T10:38:23.732Z,101213.22
2023-05-10T10:41:03.299Z,101205.06
2023-05-10T10:43:30.452Z,101207.47
2023-05-10T10:46:18.313Z,101206.69
2023-05-10T10:48:50.830Z,101215.97
2023-05-10T10:51:17.558Z,101217.03
2023-05-10T10:53:44.222Z,101210.47
2023-05-10T10:56:14.577Z,101205.56
2023-05-10T10:58:42.328Z,101215.41
2023-05-10T11:01:19.683Z,101213.19
2023-05-10T11:04:01.490Z,101211.00
2023-05-10T11:06:32.748Z,101208.81
2023-05-10T11:08:59.418Z,101220.81
2023-05-10T11:11:26.470Z,101213.16
2023-05-10T11:13:52.853Z,101218.09
2023-05-10T11:16:21.791Z,101218.13
2023-05-10T11:18:58.850Z,101216.47
2023-05-10T11:21:25.343Z,101214.56
2023-05-10T11:23:57.654Z,101219.78
2023-05-10T11:26:35.333Z,101221.16
2023-05-10T11:29:02.894Z,101227.44
2023-05-10T11:31:29.725Z,101218.94
2023-05-10T11:34:00.756Z,101220.84
2023-05-10T11:36:28.941Z,101229.56
2023-05-10T11:38:56.717Z,101220.53
2023-05-10T11:41:24.312Z,101219.66
2023-05-10T11:43:52.351Z,101231.06
2023-05-10T11:46:21.505Z,101219.81
2023-05-10T11:48:51.872Z,101225.75
2023-05-10T11:51:23.182Z,101224.63
2023-05-10T11:53:51.526Z,101226.78
2023-05-10T11:56:17.945Z,101217.44
2023-05-10T11:58:44.458Z,101223.72
2023-05-10T12:01:11.624Z,101223.44
2023-05-10T12:03:38.926Z,101234.56
2023-05-10T12:06:06.356Z,101240.88
2023-05-10T12:08:32.727Z,101236.22
2023-05-10T12:11:11.340Z,101226.38
2023-05-10T12:13:41.958Z,101230.22
2023-05-10T12:16:19.666Z,101234.56
2023-05-10T12:18:48.884Z,101231.56
2023-05-10T12:21:16.416Z,101232.91
2023-05-10T12:23:42.974Z,101227.44
2023-05-10T12:26:12.430Z,101221.72
2023-05-10T12:28:40.489Z,101226.31
2023-05-10T12:31:07.967Z,101229.34
2023-05-10T12:33:43.475Z,101226.88
2023-05-10T12:36:11.260Z,101224.69
2023-05-10T12:38:40.102Z,101229.56
2023-05-10T12:41:16.043Z,101230.03
2023-05-10T12:43:42.765Z,101228.91
2023-05-10T12:46:11.069Z,101228.34
2023-05-10T12:48:38.991Z,101222.84
2023-05-10T12:51:06.268Z,101229.88
2023-05-10T12:53:32.778Z,101230.91
2023-05-10T12:55:59.234Z,101238.28
2023-05-10T12:58:34.893Z,101238.00
2023-05-10T13:01:02.340Z,101235.81
2023-05-10T13:03:28.742Z,101238.47
2023-05-10T13:05:55.073Z,101239.00
2023-05-10T13:08:21.415Z,101234.06
2023-05-10T13:10:47.796Z,101244.41
2023-05-10T13:13:15.202Z,101246.03
2023-05-10T13:15:41.555Z,101242.22
2023-05-10T13:18:07.969Z,101255.34
2023-05-10T13:20:34.408Z,101259.50
2023-05-10T13:23:00.766Z,101261.72
2023-05-10T13:25:27.195Z,101266.94
2023-05-10T13:27:53.542Z,101270.31
2023-05-10T13:30:19.881Z,101269.81
2023-05-10T13:32:46.641Z,101278.59
2023-05-10T13:35:13.079Z,101286.06
2023-05-10T13:37:39.426Z,101276.31
2023-05-10T13:40:07.122Z,101282.38
2023-05-10T13:42:34.464Z,101291.97
2023-05-10T13:45:02.741Z,101299.69
2023-05-10T13:47:29.398Z,101295.63
2023-05-10T13:49:56.226Z,101300.34
2023-05-10T13:52:22.702Z,101299.53
2023-05-10T13:54:49.149Z,101294.66
2023-05-10T13:57:17.595Z,101307.53
2023-05-10T13:59:43.939Z,101304.84
2023-05-10T14:02:10.370Z,101298.59
2023-05-10T14:04:36.757Z,101299.44
2023-05-10T14:07:03.186Z,101303.81
2023-05-10T14:09:29.544Z,101302.16
2023-05-10T14:11:56.787Z,101298.91
2023-05-10T14:14:23.187Z,101303.81
2023-05-10T14:16:49.761Z,101302.72
2023-05-10T14:19:16.152Z,101304.91
2023-05-10T14:21:42.602Z,101303.28
2023-05-10T14:24:08.939Z,101310.94
2023-05-10T14:26:35.576Z,101309.28
2023-05-10T14:29:02.342Z,101310.94
2023-05-10T14:31:31.119Z,101310.94
2023-05-10T14:33:58.615Z,101316.38
2023-05-10T14:36:25.062Z,101305.47
2023-05-10T14:38:51.735Z,101302.22
2023-05-10T14:41:18.698Z,101306.56
2023-05-10T14:43:45.078Z,101310.38
2023-05-10T14:46:11.534Z,101308.50
2023-05-10T14:48:37.938Z,101302.22
2023-05-10T14:51:04.614Z,101304.41
2023-05-10T14:53:31.206Z,101306.03
2023-05-10T14:55:58.312Z,101302.22
2023-05-10T14:58:24.728Z,101303.59
2023-05-10T15:00:51.564Z,101300.59
2023-05-10T15:03:18.366Z,101303.31
2023-05-10T15:05:45.338Z,101306.03
2023-05-10T15:08:13.435Z,101305.78
2023-05-10T15:10:40.495Z,101307.66
2023-05-10T15:13:06.997Z,101303.84
2023-05-10T15:15:33.505Z,101304.38
2023-05-10T15:18:00.038Z,101304.91
2023-05-10T15:20:26.753Z,101308.19
2023-05-10T15:22:53.142Z,101306.00
2023-05-10T15:25:19.639Z,101304.63
2023-05-10T15:27:46.015Z,101302.72
2023-05-10T15:30:13.104Z,101301.63
2023-05-10T15:32:40.935Z,101298.63
2023-05-10T15:35:08.916Z,101305.94
2023-05-10T15:37:35.523Z,101299.94
2023-05-10T15:40:04.747Z,101302.38
2023-05-10T15:42:32.608Z,101302.38
2023-05-10T15:44:59.385Z,101301.81
2023-05-10T15:47:26.933Z,101309.69
2023-05-10T15:49:53.366Z,101303.69
2023-05-10T15:52:21.028Z,101311.84
2023-05-10T15:54:47.490Z,101306.91
2023-05-10T15:57:14.121Z,101312.91
2023-05-10T15:59:40.604Z,101320.53
2023-05-10T16:02:08.739Z,101319.97
2023-05-10T16:04:35.182Z,101321.84
2023-05-10T16:07:01.607Z,101323.75
2023-05-10T16:09:28.058Z,101324.81
2023-05-10T16:11:54.602Z,101333.25
2023-05-10T16:14:24.760Z,101332.69
2023-05-10T16:16:51.581Z,101326.97
2023-05-10T16:19:18.520Z,101331.31
2023-05-10T16:21:45.230Z,101344.66
2023-05-10T16:24:21.037Z,101333.75
2023-05-10T16:26:48.472Z,101333.75
2023-05-10T16:29:14.926Z,101336.78
2023-05-10T16:31:41.483Z,101337.31
2023-05-10T16:34:07.879Z,101341.63
2023-05-10T16:36:34.327Z,101339.44
2023-05-10T16:39:00.939Z,101340.53
2023-05-10T16:41:27.332Z,101341.63
2023-05-10T16:43:57.770Z,101345.50
2023-05-10T16:46:24.408Z,101347.41
2023-05-10T16:48:51.039Z,101341.41
2023-05-10T16:51:17.415Z,101340.59
2023-05-10T16:53:43.925Z,101340.59
2023-05-10T16:56:10.491Z,101343.34
2023-05-10T16:58:36.875Z,101338.97
2023-05-10T17:01:03.401Z,101349.06
2023-05-10T17:03:32.392Z,101344.44
2023-05-10T17:05:59.010Z,101344.13
2023-05-10T17:08:25.496Z,101343.03
2023-05-10T17:10:51.875Z,101341.41
2023-05-10T17:13:18.569Z,101345.50
2023-05-10T17:15:47.353Z,101350.94
2023-05-10T17:18:13.835Z,101355.28
2023-05-10T17:20:44.042Z,101356.69
2023-05-10T17:23:11.244Z,101360.25
2023-05-10T17:25:37.663Z,101361.88
2023-05-10T17:28:04.353Z,101368.94
2023-05-10T17:30:32.672Z,101363.53
2023-05-10T17:33:02.672Z,101369.25
2023-05-10T17:35:31.389Z,101369.25
2023-05-10T17:37:58.232Z,101370.38
2023-05-10T17:40:24.610Z,101371.22
2023-05-10T17:42:52.037Z,101365.25
2023-05-10T17:45:18.849Z,101374.53
2023-05-10T17:47:45.569Z,101378.59
2023-05-10T17:50:12.021Z,101378.03
2023-05-10T17:52:38.514Z,101381.03
2023-05-10T17:55:05.352Z,101380.47
2023-05-10T17:57:31.835Z,101384.31
2023-05-10T17:59:58.202Z,101388.38
2023-05-10T18:02:24.615Z,101388.91
2023-05-10T18:04:51.220Z,101389.75
2023-05-10T18:07:17.785Z,101397.94
2023-05-10T18:09:44.174Z,101397.09
2023-05-10T18:12:10.561Z,101391.94
2023-05-10T18:14:41.135Z,101398.19
2023-05-10T18:17:08.664Z,101399.03
2023-05-10T18:19:35.083Z,101387.06
2023-05-10T18:22:01.566Z,101394.72
2023-05-10T18:24:38.366Z,101396.91
2023-05-10T18:27:05.881Z,101398.78
2023-05-10T18:29:32.432Z,101395.28
2023-05-10T18:31:58.821Z,101391.16
2023-05-10T18:34:25.210Z,101398.00
2023-05-10T18:36:52.239Z,101398.00
2023-05-10T18:39:18.964Z,101394.44
2023-05-10T18:41:45.716Z,101399.09
2023-05-10T18:44:12.185Z,101392.56
2023-05-10T18:46:38.639Z,101397.75
2023-05-10T18:49:05.798Z,101396.94
2023-05-10T18:51:32.146Z,101405.66
2023-05-10T18:53:58.563Z,101404.03
2023-05-10T18:56:24.954Z,101410.56
2023-05-10T18:58:51.431Z,101406.22
2023-05-10T19:01:18.012Z,101409.19
2023-05-10T19:03:44.512Z,101416.03
2023-05-10T19:06:11.543Z,101405.13
2023-05-10T19:08:37.930Z,101411.69
2023-05-10T19:11:04.298Z,101413.88
2023-05-10T19:13:30.713Z,101425.03
2023-05-10T19:16:06.176Z,101419.34
2023-05-10T19:18:33.788Z,101428.63
2023-05-10T19:21:03.572Z,101429.72
2023-05-10T19:23:33.092Z,101427.81
2023-05-10T19:26:00.236Z,101424.03
2023-05-10T19:28:26.931Z,101430.28
2023-05-10T19:30:53.423Z,101424.31
2023-05-10T19:33:20.309Z,101424.31
2023-05-10T19:35:46.791Z,101424.84
2023-05-10T19:38:13.189Z,101437.16
2023-05-10T19:40:39.559Z,101448.31
2023-05-10T19:43:05.939Z,101449.38
2023-05-10T19:45:33.997Z,101442.84
2023-05-10T19:48:01.409Z,101450.47
2023-05-10T19:50:27.964Z,101445.00
2023-05-10T19:52:54.337Z,101450.47
2023-05-10T19:55:31.445Z,101445.84
2023-05-10T19:58:00.561Z,101458.63
2023-05-10T20:00:29.841Z,101451.84
2023-05-10T20:02:56.295Z,101454.56
2023-05-10T20:05:22.795Z,101453.47
2023-05-10T20:07:49.600Z,101462.19
2023-05-10T20:10:17.124Z,101458.91
2023-05-10T20:12:52.031Z,101456.75
2023-05-10T20:15:20.365Z,101454.84
2023-05-10T20:17:47.805Z,101451.56
2023-05-10T20:20:18.114Z,101446.13
2023-05-10T20:22:44.770Z,101451.28
2023-05-10T20:25:11.471Z,101459.19
2023-05-10T20:27:38.187Z,101460.00
2023-05-10T20:30:05.694Z,101461.63
2023-05-10T20:32:32.238Z,101459.19
2023-05-10T20:34:58.660Z,101468.47
2023-05-10T20:37:25.216Z,101464.09
2023-05-10T20:39:51.582Z,101462.19
2023-05-10T20:42:21.700Z,101459.75
2023-05-10T20:44:48.077Z,101466.28
2023-05-10T20:47:15.598Z,101472.81
2023-05-10T20:49:42.687Z,101464.63
2023-05-10T20:52:09.661Z,101469.00
2023-05-10T20:54:36.148Z,101464.34
2023-05-10T20:57:02.493Z,101469.00
2023-05-10T20:59:28.841Z,101469.00
2023-05-10T21:01:56.868Z,101466.00
2023-05-10T21:04:23.457Z,101464.34
2023-05-10T21:06:50.024Z,101469.00
2023-05-10T21:09:17.589Z,101464.09
2023-05-10T21:11:44.267Z,101466.28
2023-05-10T21:14:10.684Z,101464.63
2023-05-10T21:16:37.074Z,101461.38
2023-05-10T21:19:03.571Z,101466.28
2023-05-10T21:21:30.018Z,101472.53
2023-05-10T21:23:56.375Z,101469.00
2023-05-10T21:26:23.205Z,101465.19
2023-05-10T21:28:49.627Z,101463.53
2023-05-10T21:31:16.147Z,101471.97
2023-05-10T21:33:42.550Z,101456.47
2023-05-10T21:36:09.512Z,101461.06
2023-05-10T21:38:35.965Z,101455.91
2023-05-10T21:41:06.589Z,101459.72
2023-05-10T21:43:32.965Z,101459.44
2023-05-10T21:45:59.376Z,101455.38
2023-05-10T21:48:25.808Z,101454.84
2023-05-10T21:50:52.211Z,101457.56
2023-05-10T21:53:18.569Z,101455.94
2023-05-10T21:55:44.909Z,101457.81
2023-05-10T21:58:11.250Z,101457.03
2023-05-10T22:00:37.852Z,101458.09
2023-05-10T22:03:04.315Z,101456.47
2023-05-10T22:05:30.840Z,101461.38
2023-05-10T22:07:57.286Z,101454.84
2023-05-10T22:10:23.651Z,101459.72
2023-05-10T22:12:50.053Z,101467.34
2023-05-10T22:15:16.433Z,101468.44
2023-05-10T22:17:42.801Z,101472.50
2023-05-10T22:20:09.415Z,101477.97
2023-05-10T22:22:36.706Z,101476.59
2023-05-10T22:25:03.825Z,101476.06
2023-05-10T22:27:30.187Z,101475.22
2023-05-10T22:29:56.753Z,101475.78
2023-05-10T22:32:23.133Z,101469.53
2023-05-10T22:34:49.592Z,101475.22
2023-05-10T22:37:17.888Z,101473.34
2023-05-10T22:39:47.146Z,101469.53
2023-05-10T22:42:13.504Z,101466.81
2023-05-10T22:44:39.977Z,101474.69
2023-05-10T22:47:07.951Z,101470.09
2023-05-10T22:49:34.978Z,101473.91
2023-05-10T22:52:01.365Z,101480.97
2023-05-10T22:54:27.838Z,101466.28
2023-05-10T22:56:54.453Z,101474.44
2023-05-10T22:59:21.004Z,101478.25
2023-05-10T23:01:48.859Z,101472.25
2023-05-10T23:04:15.811Z,101477.16
2023-05-10T23:06:42.224Z,101480.97
2023-05-10T23:09:08.961Z,101486.97
2023-05-10T23:11:35.357Z,101486.94
2023-05-10T23:14:01.869Z,101486.41
2023-05-10T23:16:28.380Z,101486.41
2023-05-10T23:18:55.228Z,101489.94
2023-05-10T23:21:21.766Z,101481.50
2023-05-10T23:23:48.184Z,101488.84
2023-05-10T23:26:14.520Z,101493.47
2023-05-10T23:28:41.048Z,101494.56
2023-05-10T23:31:07.410Z,101493.47
2023-05-10T23:33:33.791Z,101504.91
2023-05-10T23:36:00.201Z,101495.66
2023-05-10T23:38:26.948Z,101491.00
2023-05-10T23:40:53.431Z,101494.56
2023-05-10T23:43:20.816Z,101490.75
2023-05-10T23:45:54.955Z,101490.72
2023-05-10T23:48:21.794Z,101488.56
2023-05-10T23:50:48.236Z,101492.91
2023-05-10T23:53:14.723Z,101496.72
2023-05-10T23:55:41.302Z,101491.28
2023-05-10T23:58:07.681Z,101486.94
